sensor_id;sensor_type;location;lat;lon;timestamp;P1;durP1;ratioP1;P2;durP2;ratioP2
17052;SDS011;8643;48.824;11.422;2023-06-22T00:00:37;9.77;;;6.72;;
17052;SDS011;8643;48.824;11.422;2023-06-22T00:03:10;15.55;;;6.75;;
17052;SDS011;8643;48.824;11.422;2023-06-22T00:05:40;11.32;;;6.78;;
17052;SDS011;8643;48.824;11.422;2023-06-22T00:08:08;10.23;;;6.10;;
17052;SDS011;8643;48.824;11.422;2023-06-22T00:10:37;10.18;;;6.72;;
17052;SDS011;8643;48.824;11.422;2023-06-22T00:13:08;9.57;;;6.40;;
17052;SDS011;8643;48.824;11.422;2023-06-22T00:15:37;11.75;;;6.15;;
17052;SDS011;8643;48.824;11.422;2023-06-22T00:18:10;9.63;;;6.40;;
17052;SDS011;8643;48.824;11.422;2023-06-22T00:20:41;13.68;;;6.55;;
17052;SDS011;8643;48.824;11.422;2023-06-22T00:23:12;10.00;;;6.18;;
17052;SDS011;8643;48.824;11.422;2023-06-22T00:25:43;12.05;;;6.30;;
17052;SDS011;8643;48.824;11.422;2023-06-22T00:28:12;8.95;;;6.60;;
17052;SDS011;8643;48.824;11.422;2023-06-22T00:30:41;10.57;;;6.13;;
17052;SDS011;8643;48.824;11.422;2023-06-22T00:33:11;10.15;;;6.05;;
17052;SDS011;8643;48.824;11.422;2023-06-22T00:35:40;12.25;;;6.68;;
17052;SDS011;8643;48.824;11.422;2023-06-22T00:38:09;12.45;;;6.50;;
17052;SDS011;8643;48.824;11.422;2023-06-22T00:40:38;11.48;;;6.22;;
17052;SDS011;8643;48.824;11.422;2023-06-22T00:43:06;8.85;;;6.32;;
17052;SDS011;8643;48.824;11.422;2023-06-22T00:45:35;11.85;;;6.50;;
17052;SDS011;8643;48.824;11.422;2023-06-22T00:48:04;12.60;;;6.55;;
17052;SDS011;8643;48.824;11.422;2023-06-22T00:50:36;17.15;;;6.80;;
17052;SDS011;8643;48.824;11.422;2023-06-22T00:53:06;11.68;;;6.18;;
17052;SDS011;8643;48.824;11.422;2023-06-22T00:55:38;9.95;;;6.32;;
17052;SDS011;8643;48.824;11.422;2023-06-22T00:58:12;11.85;;;6.63;;
17052;SDS011;8643;48.824;11.422;2023-06-22T01:00:41;10.40;;;6.43;;
17052;SDS011;8643;48.824;11.422;2023-06-22T01:03:10;10.77;;;6.28;;
17052;SDS011;8643;48.824;11.422;2023-06-22T01:05:41;10.38;;;6.53;;
17052;SDS011;8643;48.824;11.422;2023-06-22T01:08:16;9.10;;;6.63;;
17052;SDS011;8643;48.824;11.422;2023-06-22T01:10:59;8.93;;;6.43;;
17052;SDS011;8643;48.824;11.422;2023-06-22T01:13:41;11.27;;;7.05;;
17052;SDS011;8643;48.824;11.422;2023-06-22T01:16:19;11.48;;;7.03;;
17052;SDS011;8643;48.824;11.422;2023-06-22T01:18:55;10.32;;;6.97;;
17052;SDS011;8643;48.824;11.422;2023-06-22T01:21:32;10.52;;;6.88;;
17052;SDS011;8643;48.824;11.422;2023-06-22T01:24:07;11.30;;;6.90;;
17052;SDS011;8643;48.824;11.422;2023-06-22T01:26:46;12.50;;;6.43;;
17052;SDS011;8643;48.824;11.422;2023-06-22T01:29:29;11.82;;;6.65;;
17052;SDS011;8643;48.824;11.422;2023-06-22T01:32:01;10.32;;;6.95;;
17052;SDS011;8643;48.824;11.422;2023-06-22T01:34:35;12.00;;;6.68;;
17052;SDS011;8643;48.824;11.422;2023-06-22T01:37:06;13.02;;;6.50;;
17052;SDS011;8643;48.824;11.422;2023-06-22T01:39:36;11.55;;;7.05;;
17052;SDS011;8643;48.824;11.422;2023-06-22T01:42:05;9.48;;;6.80;;
17052;SDS011;8643;48.824;11.422;2023-06-22T01:44:36;12.85;;;7.07;;
17052;SDS011;8643;48.824;11.422;2023-06-22T01:47:08;11.57;;;6.95;;
17052;SDS011;8643;48.824;11.422;2023-06-22T01:49:38;9.85;;;6.82;;
17052;SDS011;8643;48.824;11.422;2023-06-22T01:52:07;12.75;;;7.10;;
17052;SDS011;8643;48.824;11.422;2023-06-22T01:54:36;12.65;;;6.35;;
17052;SDS011;8643;48.824;11.422;2023-06-22T01:57:05;10.60;;;7.15;;
17052;SDS011;8643;48.824;11.422;2023-06-22T01:59:37;15.05;;;6.85;;
17052;SDS011;8643;48.824;11.422;2023-06-22T02:02:16;10.00;;;6.47;;
17052;SDS011;8643;48.824;11.422;2023-06-22T02:04:54;10.27;;;6.47;;
17052;SDS011;8643;48.824;11.422;2023-06-22T02:07:28;12.73;;;7.13;;
17052;SDS011;8643;48.824;11.422;2023-06-22T02:10:04;11.48;;;6.90;;
17052;SDS011;8643;48.824;11.422;2023-06-22T02:12:38;12.38;;;7.25;;
17052;SDS011;8643;48.824;11.422;2023-06-22T02:15:11;9.82;;;7.43;;
17052;SDS011;8643;48.824;11.422;2023-06-22T02:17:42;15.73;;;7.75;;
17052;SDS011;8643;48.824;11.422;2023-06-22T02:20:12;13.50;;;8.05;;
17052;SDS011;8643;48.824;11.422;2023-06-22T02:22:41;10.05;;;7.05;;
17052;SDS011;8643;48.824;11.422;2023-06-22T02:25:10;13.82;;;7.82;;
17052;SDS011;8643;48.824;11.422;2023-06-22T02:27:38;12.55;;;8.43;;
17052;SDS011;8643;48.824;11.422;2023-06-22T02:30:08;11.45;;;8.02;;
17052;SDS011;8643;48.824;11.422;2023-06-22T02:32:41;12.63;;;7.55;;
17052;SDS011;8643;48.824;11.422;2023-06-22T02:35:10;11.27;;;8.00;;
17052;SDS011;8643;48.824;11.422;2023-06-22T02:37:38;13.18;;;8.38;;
17052;SDS011;8643;48.824;11.422;2023-06-22T02:40:09;14.25;;;8.50;;
17052;SDS011;8643;48.824;11.422;2023-06-22T02:42:39;13.27;;;8.18;;
17052;SDS011;8643;48.824;11.422;2023-06-22T02:45:07;14.85;;;8.50;;
17052;SDS011;8643;48.824;11.422;2023-06-22T02:47:38;16.05;;;8.82;;
17052;SDS011;8643;48.824;11.422;2023-06-22T02:50:07;11.60;;;7.70;;
17052;SDS011;8643;48.824;11.422;2023-06-22T02:52:37;14.27;;;8.77;;
17052;SDS011;8643;48.824;11.422;2023-06-22T02:55:06;16.35;;;8.73;;
17052;SDS011;8643;48.824;11.422;2023-06-22T02:57:36;16.90;;;9.25;;
17052;SDS011;8643;48.824;11.422;2023-06-22T03:00:12;13.40;;;8.65;;
17052;SDS011;8643;48.824;11.422;2023-06-22T03:02:47;13.68;;;8.60;;
17052;SDS011;8643;48.824;11.422;2023-06-22T03:05:18;14.40;;;8.90;;
17052;SDS011;8643;48.824;11.422;2023-06-22T03:07:47;13.95;;;8.82;;
17052;SDS011;8643;48.824;11.422;2023-06-22T03:10:16;14.05;;;8.80;;
17052;SDS011;8643;48.824;11.422;2023-06-22T03:12:44;11.88;;;8.60;;
17052;SDS011;8643;48.824;11.422;2023-06-22T03:15:14;15.05;;;8.73;;
17052;SDS011;8643;48.824;11.422;2023-06-22T03:17:47;12.43;;;8.90;;
17052;SDS011;8643;48.824;11.422;2023-06-22T03:20:16;13.20;;;8.40;;
17052;SDS011;8643;48.824;11.422;2023-06-22T03:22:45;13.23;;;8.48;;
17052;SDS011;8643;48.824;11.422;2023-06-22T03:25:15;10.85;;;8.25;;
17052;SDS011;8643;48.824;11.422;2023-06-22T03:27:47;13.57;;;8.25;;
17052;SDS011;8643;48.824;11.422;2023-06-22T03:30:16;12.23;;;8.20;;
17052;SDS011;8643;48.824;11.422;2023-06-22T03:32:45;11.27;;;7.80;;
17052;SDS011;8643;48.824;11.422;2023-06-22T03:35:15;11.57;;;7.82;;
17052;SDS011;8643;48.824;11.422;2023-06-22T03:37:45;14.30;;;8.35;;
17052;SDS011;8643;48.824;11.422;2023-06-22T03:40:14;13.63;;;8.30;;
17052;SDS011;8643;48.824;11.422;2023-06-22T03:42:43;12.18;;;8.73;;
17052;SDS011;8643;48.824;11.422;2023-06-22T03:45:12;17.00;;;8.90;;
17052;SDS011;8643;48.824;11.422;2023-06-22T03:47:40;14.15;;;8.88;;
17052;SDS011;8643;48.824;11.422;2023-06-22T03:50:11;13.05;;;8.20;;
17052;SDS011;8643;48.824;11.422;2023-06-22T03:52:40;14.82;;;8.25;;
17052;SDS011;8643;48.824;11.422;2023-06-22T03:55:09;15.23;;;8.30;;
17052;SDS011;8643;48.824;11.422;2023-06-22T03:57:43;12.40;;;7.95;;
17052;SDS011;8643;48.824;11.422;2023-06-22T04:00:12;16.92;;;7.65;;
17052;SDS011;8643;48.824;11.422;2023-06-22T04:02:43;10.75;;;8.45;;
17052;SDS011;8643;48.824;11.422;2023-06-22T04:05:13;20.02;;;8.57;;
17052;SDS011;8643;48.824;11.422;2023-06-22T04:07:44;12.43;;;7.97;;
17052;SDS011;8643;48.824;11.422;2023-06-22T04:10:13;13.15;;;8.55;;
17052;SDS011;8643;48.824;11.422;2023-06-22T04:12:43;9.77;;;7.75;;
17052;SDS011;8643;48.824;11.422;2023-06-22T04:15:12;11.73;;;8.05;;
17052;SDS011;8643;48.824;11.422;2023-06-22T04:17:41;12.75;;;8.35;;
17052;SDS011;8643;48.824;11.422;2023-06-22T04:20:10;12.68;;;8.38;;
17052;SDS011;8643;48.824;11.422;2023-06-22T04:22:40;14.98;;;7.82;;
17052;SDS011;8643;48.824;11.422;2023-06-22T04:25:09;12.27;;;8.20;;
17052;SDS011;8643;48.824;11.422;2023-06-22T04:27:37;11.70;;;7.32;;
17052;SDS011;8643;48.824;11.422;2023-06-22T04:30:07;10.43;;;7.47;;
17052;SDS011;8643;48.824;11.422;2023-06-22T04:32:37;15.25;;;7.70;;
17052;SDS011;8643;48.824;11.422;2023-06-22T04:35:08;16.30;;;7.88;;
17052;SDS011;8643;48.824;11.422;2023-06-22T04:37:37;12.82;;;8.18;;
17052;SDS011;8643;48.824;11.422;2023-06-22T04:40:08;12.88;;;8.07;;
17052;SDS011;8643;48.824;11.422;2023-06-22T04:42:37;11.98;;;7.65;;
17052;SDS011;8643;48.824;11.422;2023-06-22T04:45:07;12.65;;;8.38;;
17052;SDS011;8643;48.824;11.422;2023-06-22T04:47:37;13.27;;;7.70;;
17052;SDS011;8643;48.824;11.422;2023-06-22T04:50:06;12.98;;;7.80;;
17052;SDS011;8643;48.824;11.422;2023-06-22T04:52:35;9.48;;;7.30;;
17052;SDS011;8643;48.824;11.422;2023-06-22T04:55:04;11.23;;;6.93;;
17052;SDS011;8643;48.824;11.422;2023-06-22T04:57:35;14.35;;;7.38;;
17052;SDS011;8643;48.824;11.422;2023-06-22T05:00:06;11.70;;;7.05;;
17052;SDS011;8643;48.824;11.422;2023-06-22T05:02:44;12.00;;;7.60;;
17052;SDS011;8643;48.824;11.422;2023-06-22T05:05:14;10.95;;;7.00;;
17052;SDS011;8643;48.824;11.422;2023-06-22T05:07:44;12.57;;;7.28;;
17052;SDS011;8643;48.824;11.422;2023-06-22T05:10:17;14.05;;;7.40;;
17052;SDS011;8643;48.824;11.422;2023-06-22T05:12:47;14.40;;;7.60;;
17052;SDS011;8643;48.824;11.422;2023-06-22T05:15:16;10.75;;;7.18;;
17052;SDS011;8643;48.824;11.422;2023-06-22T05:17:46;12.20;;;7.32;;
17052;SDS011;8643;48.824;11.422;2023-06-22T05:20:15;10.25;;;7.10;;
17052;SDS011;8643;48.824;11.422;2023-06-22T05:22:45;14.10;;;7.05;;
17052;SDS011;8643;48.824;11.422;2023-06-22T05:25:13;11.40;;;6.93;;
17052;SDS011;8643;48.824;11.422;2023-06-22T05:27:42;8.60;;;6.88;;
17052;SDS011;8643;48.824;11.422;2023-06-22T05:30:12;12.63;;;6.85;;
17052;SDS011;8643;48.824;11.422;2023-06-22T05:32:44;12.00;;;6.60;;
17052;SDS011;8643;48.824;11.422;2023-06-22T05:35:13;13.05;;;6.45;;
17052;SDS011;8643;48.824;11.422;2023-06-22T05:37:42;11.57;;;6.53;;
17052;SDS011;8643;48.824;11.422;2023-06-22T05:40:11;11.23;;;5.88;;
17052;SDS011;8643;48.824;11.422;2023-06-22T05:42:40;10.55;;;6.18;;
17052;SDS011;8643;48.824;11.422;2023-06-22T05:45:09;13.32;;;6.00;;
17052;SDS011;8643;48.824;11.422;2023-06-22T05:47:39;8.40;;;5.55;;
17052;SDS011;8643;48.824;11.422;2023-06-22T05:50:08;9.60;;;5.15;;
17052;SDS011;8643;48.824;11.422;2023-06-22T05:52:39;10.18;;;5.25;;
17052;SDS011;8643;48.824;11.422;2023-06-22T05:55:08;10.88;;;4.90;;
17052;SDS011;8643;48.824;11.422;2023-06-22T05:57:37;9.10;;;5.47;;
17052;SDS011;8643;48.824;11.422;2023-06-22T06:00:06;11.68;;;5.38;;
17052;SDS011;8643;48.824;11.422;2023-06-22T06:02:40;9.43;;;4.65;;
17052;SDS011;8643;48.824;11.422;2023-06-22T06:05:10;9.00;;;4.82;;
17052;SDS011;8643;48.824;11.422;2023-06-22T06:07:40;9.13;;;5.05;;
17052;SDS011;8643;48.824;11.422;2023-06-22T06:10:09;8.63;;;4.90;;
17052;SDS011;8643;48.824;11.422;2023-06-22T06:12:38;8.35;;;5.05;;
17052;SDS011;8643;48.824;11.422;2023-06-22T06:15:07;10.75;;;5.15;;
17052;SDS011;8643;48.824;11.422;2023-06-22T06:17:45;10.57;;;4.90;;
17052;SDS011;8643;48.824;11.422;2023-06-22T06:20:15;8.30;;;4.68;;
17052;SDS011;8643;48.824;11.422;2023-06-22T06:22:45;10.48;;;5.20;;
17052;SDS011;8643;48.824;11.422;2023-06-22T06:25:14;9.07;;;4.95;;
17052;SDS011;8643;48.824;11.422;2023-06-22T06:27:43;9.23;;;5.32;;
17052;SDS011;8643;48.824;11.422;2023-06-22T06:30:14;10.35;;;4.82;;
17052;SDS011;8643;48.824;11.422;2023-06-22T06:32:44;9.77;;;5.03;;
17052;SDS011;8643;48.824;11.422;2023-06-22T06:35:14;9.35;;;5.10;;
17052;SDS011;8643;48.824;11.422;2023-06-22T06:37:45;10.48;;;5.10;;
17052;SDS011;8643;48.824;11.422;2023-06-22T06:40:16;9.98;;;6.03;;
17052;SDS011;8643;48.824;11.422;2023-06-22T06:42:47;8.95;;;5.53;;
17052;SDS011;8643;48.824;11.422;2023-06-22T06:45:17;8.65;;;4.57;;
17052;SDS011;8643;48.824;11.422;2023-06-22T06:47:50;10.00;;;4.88;;
17052;SDS011;8643;48.824;11.422;2023-06-22T06:50:20;7.47;;;4.45;;
17052;SDS011;8643;48.824;11.422;2023-06-22T06:52:49;13.00;;;4.72;;
17052;SDS011;8643;48.824;11.422;2023-06-22T06:55:17;8.63;;;4.18;;
17052;SDS011;8643;48.824;11.422;2023-06-22T06:57:47;7.57;;;4.28;;
17052;SDS011;8643;48.824;11.422;2023-06-22T07:00:16;7.00;;;4.28;;
17052;SDS011;8643;48.824;11.422;2023-06-22T07:02:46;9.50;;;4.20;;
17052;SDS011;8643;48.824;11.422;2023-06-22T07:05:17;9.05;;;5.13;;
17052;SDS011;8643;48.824;11.422;2023-06-22T07:07:45;8.50;;;4.57;;
17052;SDS011;8643;48.824;11.422;2023-06-22T07:10:14;11.07;;;4.35;;
17052;SDS011;8643;48.824;11.422;2023-06-22T07:12:43;7.28;;;4.13;;
17052;SDS011;8643;48.824;11.422;2023-06-22T07:15:11;8.85;;;4.00;;
17052;SDS011;8643;48.824;11.422;2023-06-22T07:17:41;8.27;;;4.07;;
17052;SDS011;8643;48.824;11.422;2023-06-22T07:20:10;8.73;;;3.97;;
17052;SDS011;8643;48.824;11.422;2023-06-22T07:22:41;9.48;;;3.50;;
17052;SDS011;8643;48.824;11.422;2023-06-22T07:25:12;14.35;;;5.00;;
17052;SDS011;8643;48.824;11.422;2023-06-22T07:27:45;8.85;;;5.40;;
17052;SDS011;8643;48.824;11.422;2023-06-22T07:30:24;8.40;;;4.30;;
17052;SDS011;8643;48.824;11.422;2023-06-22T07:32:53;5.88;;;3.95;;
17052;SDS011;8643;48.824;11.422;2023-06-22T07:35:22;8.63;;;4.10;;
17052;SDS011;8643;48.824;11.422;2023-06-22T07:37:52;20.40;;;4.60;;
17052;SDS011;8643;48.824;11.422;2023-06-22T07:40:21;7.78;;;4.40;;
17052;SDS011;8643;48.824;11.422;2023-06-22T07:42:49;7.95;;;4.05;;
17052;SDS011;8643;48.824;11.422;2023-06-22T07:45:19;8.60;;;4.18;;
17052;SDS011;8643;48.824;11.422;2023-06-22T07:47:48;9.55;;;4.07;;
17052;SDS011;8643;48.824;11.422;2023-06-22T07:50:17;9.43;;;4.40;;
17052;SDS011;8643;48.824;11.422;2023-06-22T07:52:46;7.43;;;4.18;;
17052;SDS011;8643;48.824;11.422;2023-06-22T07:55:16;8.45;;;4.40;;
17052;SDS011;8643;48.824;11.422;2023-06-22T07:57:46;9.88;;;4.05;;
17052;SDS011;8643;48.824;11.422;2023-06-22T08:00:18;10.15;;;4.05;;
17052;SDS011;8643;48.824;11.422;2023-06-22T08:02:47;13.10;;;4.32;;
17052;SDS011;8643;48.824;11.422;2023-06-22T08:05:16;11.32;;;4.30;;
17052;SDS011;8643;48.824;11.422;2023-06-22T08:07:48;10.75;;;4.40;;
17052;SDS011;8643;48.824;11.422;2023-06-22T08:10:19;12.02;;;4.20;;
17052;SDS011;8643;48.824;11.422;2023-06-22T08:12:48;16.92;;;4.90;;
17052;SDS011;8643;48.824;11.422;2023-06-22T08:15:16;7.47;;;4.07;;
17052;SDS011;8643;48.824;11.422;2023-06-22T08:17:45;8.65;;;4.20;;
17052;SDS011;8643;48.824;11.422;2023-06-22T08:20:13;18.73;;;4.57;;
17052;SDS011;8643;48.824;11.422;2023-06-22T08:22:42;14.05;;;6.00;;
17052;SDS011;8643;48.824;11.422;2023-06-22T08:25:12;22.63;;;5.18;;
17052;SDS011;8643;48.824;11.422;2023-06-22T08:27:45;16.02;;;4.35;;
17052;SDS011;8643;48.824;11.422;2023-06-22T08:30:15;7.53;;;4.22;;
17052;SDS011;8643;48.824;11.422;2023-06-22T08:32:45;7.95;;;4.03;;
17052;SDS011;8643;48.824;11.422;2023-06-22T08:35:14;8.40;;;4.10;;
17052;SDS011;8643;48.824;11.422;2023-06-22T08:37:42;7.60;;;3.75;;
17052;SDS011;8643;48.824;11.422;2023-06-22T08:40:17;5.63;;;3.50;;
17052;SDS011;8643;48.824;11.422;2023-06-22T08:42:48;109.13;;;12.82;;
17052;SDS011;8643;48.824;11.422;2023-06-22T08:45:17;15.45;;;4.38;;
17052;SDS011;8643;48.824;11.422;2023-06-22T08:47:46;163.55;;;11.05;;
17052;SDS011;8643;48.824;11.422;2023-06-22T08:50:15;16.70;;;4.95;;
17052;SDS011;8643;48.824;11.422;2023-06-22T08:52:43;7.07;;;4.18;;
17052;SDS011;8643;48.824;11.422;2023-06-22T08:55:12;7.13;;;3.85;;
17052;SDS011;8643;48.824;11.422;2023-06-22T08:57:41;10.80;;;4.40;;
17052;SDS011;8643;48.824;11.422;2023-06-22T09:00:12;9.27;;;4.40;;
17052;SDS011;8643;48.824;11.422;2023-06-22T09:02:52;7.03;;;4.55;;
17052;SDS011;8643;48.824;11.422;2023-06-22T09:05:25;8.32;;;4.13;;
17052;SDS011;8643;48.824;11.422;2023-06-22T09:07:55;6.75;;;4.00;;
17052;SDS011;8643;48.824;11.422;2023-06-22T09:10:25;8.95;;;4.35;;
17052;SDS011;8643;48.824;11.422;2023-06-22T09:12:54;10.13;;;4.57;;
17052;SDS011;8643;48.824;11.422;2023-06-22T09:15:24;10.93;;;4.32;;
17052;SDS011;8643;48.824;11.422;2023-06-22T09:17:53;7.45;;;3.88;;
17052;SDS011;8643;48.824;11.422;2023-06-22T09:20:23;6.57;;;3.80;;
17052;SDS011;8643;48.824;11.422;2023-06-22T09:22:52;13.00;;;4.40;;
17052;SDS011;8643;48.824;11.422;2023-06-22T09:25:20;11.68;;;4.13;;
17052;SDS011;8643;48.824;11.422;2023-06-22T09:27:49;12.25;;;4.60;;
17052;SDS011;8643;48.824;11.422;2023-06-22T09:30:18;9.40;;;4.30;;
17052;SDS011;8643;48.824;11.422;2023-06-22T09:32:49;8.02;;;4.18;;
17052;SDS011;8643;48.824;11.422;2023-06-22T09:35:18;9.63;;;3.95;;
17052;SDS011;8643;48.824;11.422;2023-06-22T09:37:47;9.20;;;4.30;;
17052;SDS011;8643;48.824;11.422;2023-06-22T09:40:16;8.65;;;3.80;;
17052;SDS011;8643;48.824;11.422;2023-06-22T09:42:45;11.85;;;4.10;;
17052;SDS011;8643;48.824;11.422;2023-06-22T09:45:14;8.38;;;4.28;;
17052;SDS011;8643;48.824;11.422;2023-06-22T09:47:42;8.82;;;4.00;;
17052;SDS011;8643;48.824;11.422;2023-06-22T09:50:13;9.00;;;4.03;;
17052;SDS011;8643;48.824;11.422;2023-06-22T09:52:42;8.02;;;4.57;;
17052;SDS011;8643;48.824;11.422;2023-06-22T09:55:14;8.68;;;4.00;;
17052;SDS011;8643;48.824;11.422;2023-06-22T09:57:43;6.53;;;4.10;;
17052;SDS011;8643;48.824;11.422;2023-06-22T10:00:12;13.18;;;4.93;;
17052;SDS011;8643;48.824;11.422;2023-06-22T10:02:43;17.13;;;4.22;;
17052;SDS011;8643;48.824;11.422;2023-06-22T10:05:13;10.65;;;4.28;;
17052;SDS011;8643;48.824;11.422;2023-06-22T10:07:42;10.70;;;4.82;;
17052;SDS011;8643;48.824;11.422;2023-06-22T10:10:11;6.85;;;4.18;;
17052;SDS011;8643;48.824;11.422;2023-06-22T10:12:42;8.07;;;4.60;;
17052;SDS011;8643;48.824;11.422;2023-06-22T10:15:14;8.93;;;4.50;;
17052;SDS011;8643;48.824;11.422;2023-06-22T10:17:44;8.32;;;3.95;;
17052;SDS011;8643;48.824;11.422;2023-06-22T10:20:14;10.38;;;4.30;;
17052;SDS011;8643;48.824;11.422;2023-06-22T10:22:45;10.57;;;4.47;;
17052;SDS011;8643;48.824;11.422;2023-06-22T10:25:13;13.15;;;4.32;;
17052;SDS011;8643;48.824;11.422;2023-06-22T10:27:42;7.78;;;4.50;;
17052;SDS011;8643;48.824;11.422;2023-06-22T10:30:11;11.25;;;4.50;;
17052;SDS011;8643;48.824;11.422;2023-06-22T10:32:41;13.27;;;4.60;;
17052;SDS011;8643;48.824;11.422;2023-06-22T10:35:11;8.93;;;3.90;;
17052;SDS011;8643;48.824;11.422;2023-06-22T10:37:44;9.48;;;4.35;;
17052;SDS011;8643;48.824;11.422;2023-06-22T10:40:14;8.75;;;4.13;;
17052;SDS011;8643;48.824;11.422;2023-06-22T10:42:45;9.10;;;4.65;;
17052;SDS011;8643;48.824;11.422;2023-06-22T10:45:13;10.55;;;3.92;;
17052;SDS011;8643;48.824;11.422;2023-06-22T10:47:42;16.15;;;4.47;;
17052;SDS011;8643;48.824;11.422;2023-06-22T10:50:11;10.88;;;4.40;;
17052;SDS011;8643;48.824;11.422;2023-06-22T10:52:40;10.43;;;4.50;;
17052;SDS011;8643;48.824;11.422;2023-06-22T10:55:10;9.95;;;4.68;;
17052;SDS011;8643;48.824;11.422;2023-06-22T10:57:39;10.35;;;3.92;;
17052;SDS011;8643;48.824;11.422;2023-06-22T11:00:10;12.38;;;4.38;;
17052;SDS011;8643;48.824;11.422;2023-06-22T11:02:40;11.90;;;4.60;;
17052;SDS011;8643;48.824;11.422;2023-06-22T11:05:09;9.57;;;4.53;;
17052;SDS011;8643;48.824;11.422;2023-06-22T11:07:38;11.45;;;4.60;;
17052;SDS011;8643;48.824;11.422;2023-06-22T11:10:12;13.00;;;4.70;;
17052;SDS011;8643;48.824;11.422;2023-06-22T11:12:41;12.88;;;4.20;;
17052;SDS011;8643;48.824;11.422;2023-06-22T11:15:10;16.17;;;4.45;;
17052;SDS011;8643;48.824;11.422;2023-06-22T11:17:39;10.57;;;4.20;;
17052;SDS011;8643;48.824;11.422;2023-06-22T11:20:07;13.27;;;4.80;;
17052;SDS011;8643;48.824;11.422;2023-06-22T11:22:39;13.43;;;4.63;;
17052;SDS011;8643;48.824;11.422;2023-06-22T11:25:08;10.95;;;4.68;;
17052;SDS011;8643;48.824;11.422;2023-06-22T11:27:40;12.50;;;4.90;;
17052;SDS011;8643;48.824;11.422;2023-06-22T11:30:09;14.75;;;4.47;;
17052;SDS011;8643;48.824;11.422;2023-06-22T11:32:38;14.43;;;5.07;;
17052;SDS011;8643;48.824;11.422;2023-06-22T11:35:06;9.23;;;4.55;;
17052;SDS011;8643;48.824;11.422;2023-06-22T11:37:35;9.88;;;4.43;;
17052;SDS011;8643;48.824;11.422;2023-06-22T11:40:04;13.80;;;4.80;;
17052;SDS011;8643;48.824;11.422;2023-06-22T11:42:35;11.38;;;4.57;;
17052;SDS011;8643;48.824;11.422;2023-06-22T11:45:06;14.30;;;4.95;;
17052;SDS011;8643;48.824;11.422;2023-06-22T11:47:35;10.63;;;4.45;;
17052;SDS011;8643;48.824;11.422;2023-06-22T11:50:04;11.07;;;4.90;;
17052;SDS011;8643;48.824;11.422;2023-06-22T11:52:34;11.32;;;4.80;;
17052;SDS011;8643;48.824;11.422;2023-06-22T11:55:03;10.80;;;4.90;;
17052;SDS011;8643;48.824;11.422;2023-06-22T11:57:33;10.55;;;4.40;;
17052;SDS011;8643;48.824;11.422;2023-06-22T12:00:03;16.75;;;5.30;;
17052;SDS011;8643;48.824;11.422;2023-06-22T12:02:42;17.02;;;5.50;;
17052;SDS011;8643;48.824;11.422;2023-06-22T12:05:12;16.75;;;4.70;;
17052;SDS011;8643;48.824;11.422;2023-06-22T12:07:40;10.00;;;4.60;;
17052;SDS011;8643;48.824;11.422;2023-06-22T12:10:09;12.30;;;5.07;;
17052;SDS011;8643;48.824;11.422;2023-06-22T12:12:38;11.18;;;4.68;;
17052;SDS011;8643;48.824;11.422;2023-06-22T12:15:08;12.38;;;4.82;;
17052;SDS011;8643;48.824;11.422;2023-06-22T12:17:39;10.57;;;4.75;;
17052;SDS011;8643;48.824;11.422;2023-06-22T12:20:08;12.75;;;4.97;;
17052;SDS011;8643;48.824;11.422;2023-06-22T12:22:37;15.60;;;5.05;;
17052;SDS011;8643;48.824;11.422;2023-06-22T12:25:06;11.18;;;4.53;;
17052;SDS011;8643;48.824;11.422;2023-06-22T12:27:36;9.85;;;4.90;;
17052;SDS011;8643;48.824;11.422;2023-06-22T12:30:08;13.35;;;4.60;;
17052;SDS011;8643;48.824;11.422;2023-06-22T12:32:37;13.52;;;4.85;;
17052;SDS011;8643;48.824;11.422;2023-06-22T12:35:06;12.10;;;5.03;;
17052;SDS011;8643;48.824;11.422;2023-06-22T12:37:40;11.18;;;4.57;;
17052;SDS011;8643;48.824;11.422;2023-06-22T12:40:10;14.93;;;5.35;;
17052;SDS011;8643;48.824;11.422;2023-06-22T12:42:39;12.57;;;4.72;;
17052;SDS011;8643;48.824;11.422;2023-06-22T12:45:10;12.75;;;5.07;;
17052;SDS011;8643;48.824;11.422;2023-06-22T12:47:38;15.45;;;6.00;;
17052;SDS011;8643;48.824;11.422;2023-06-22T12:50:07;11.27;;;4.82;;
17052;SDS011;8643;48.824;11.422;2023-06-22T12:52:37;10.38;;;4.65;;
17052;SDS011;8643;48.824;11.422;2023-06-22T12:55:08;15.38;;;4.93;;
17052;SDS011;8643;48.824;11.422;2023-06-22T12:57:40;18.30;;;4.90;;
17052;SDS011;8643;48.824;11.422;2023-06-22T13:00:11;11.13;;;4.72;;
17052;SDS011;8643;48.824;11.422;2023-06-22T13:02:40;10.95;;;5.25;;
17052;SDS011;8643;48.824;11.422;2023-06-22T13:05:09;12.45;;;4.35;;
17052;SDS011;8643;48.824;11.422;2023-06-22T13:07:38;13.45;;;4.68;;
17052;SDS011;8643;48.824;11.422;2023-06-22T13:10:09;11.82;;;4.90;;
17052;SDS011;8643;48.824;11.422;2023-06-22T13:12:38;16.27;;;5.03;;
17052;SDS011;8643;48.824;11.422;2023-06-22T13:15:07;14.45;;;5.45;;
17052;SDS011;8643;48.824;11.422;2023-06-22T13:17:37;10.30;;;4.75;;
17052;SDS011;8643;48.824;11.422;2023-06-22T13:20:06;13.43;;;5.38;;
17052;SDS011;8643;48.824;11.422;2023-06-22T13:22:36;9.57;;;4.72;;
17052;SDS011;8643;48.824;11.422;2023-06-22T13:25:08;12.90;;;4.72;;
17052;SDS011;8643;48.824;11.422;2023-06-22T13:27:52;15.73;;;4.95;;
17052;SDS011;8643;48.824;11.422;2023-06-22T13:30:22;10.77;;;5.13;;
17052;SDS011;8643;48.824;11.422;2023-06-22T13:32:50;12.93;;;5.15;;
17052;SDS011;8643;48.824;11.422;2023-06-22T13:35:20;13.57;;;5.18;;
17052;SDS011;8643;48.824;11.422;2023-06-22T13:37:50;15.18;;;5.50;;
17052;SDS011;8643;48.824;11.422;2023-06-22T13:40:18;15.38;;;4.90;;
17052;SDS011;8643;48.824;11.422;2023-06-22T13:42:46;11.18;;;5.22;;
17052;SDS011;8643;48.824;11.422;2023-06-22T13:45:16;14.70;;;4.82;;
17052;SDS011;8643;48.824;11.422;2023-06-22T13:47:48;9.48;;;5.07;;
17052;SDS011;8643;48.824;11.422;2023-06-22T13:50:17;10.38;;;5.18;;
17052;SDS011;8643;48.824;11.422;2023-06-22T13:52:48;14.88;;;5.50;;
17052;SDS011;8643;48.824;11.422;2023-06-22T13:55:18;16.80;;;5.80;;
17052;SDS011;8643;48.824;11.422;2023-06-22T13:57:47;13.82;;;5.20;;
17052;SDS011;8643;48.824;11.422;2023-06-22T14:00:18;13.63;;;5.10;;
17052;SDS011;8643;48.824;11.422;2023-06-22T14:02:49;12.65;;;4.97;;
17052;SDS011;8643;48.824;11.422;2023-06-22T14:05:19;16.67;;;5.10;;
17052;SDS011;8643;48.824;11.422;2023-06-22T14:07:48;12.27;;;5.30;;
17052;SDS011;8643;48.824;11.422;2023-06-22T14:10:17;19.05;;;5.18;;
17052;SDS011;8643;48.824;11.422;2023-06-22T14:12:47;14.27;;;4.90;;
17052;SDS011;8643;48.824;11.422;2023-06-22T14:15:17;9.90;;;4.97;;
17052;SDS011;8643;48.824;11.422;2023-06-22T14:17:46;16.73;;;5.20;;
17052;SDS011;8643;48.824;11.422;2023-06-22T14:20:17;13.38;;;5.05;;
17052;SDS011;8643;48.824;11.422;2023-06-22T14:22:47;13.27;;;5.15;;
17052;SDS011;8643;48.824;11.422;2023-06-22T14:25:15;17.67;;;5.60;;
17052;SDS011;8643;48.824;11.422;2023-06-22T14:27:44;17.33;;;5.43;;
17052;SDS011;8643;48.824;11.422;2023-06-22T14:30:12;12.30;;;5.20;;
17052;SDS011;8643;48.824;11.422;2023-06-22T14:32:42;14.77;;;5.07;;
17052;SDS011;8643;48.824;11.422;2023-06-22T14:35:12;12.63;;;5.15;;
17052;SDS011;8643;48.824;11.422;2023-06-22T14:37:42;12.60;;;5.10;;
17052;SDS011;8643;48.824;11.422;2023-06-22T14:40:11;15.18;;;5.28;;
17052;SDS011;8643;48.824;11.422;2023-06-22T14:42:40;16.15;;;5.63;;
17052;SDS011;8643;48.824;11.422;2023-06-22T14:45:09;10.93;;;6.00;;
17052;SDS011;8643;48.824;11.422;2023-06-22T14:47:38;16.17;;;5.50;;
17052;SDS011;8643;48.824;11.422;2023-06-22T14:50:06;17.65;;;5.50;;
17052;SDS011;8643;48.824;11.422;2023-06-22T14:52:36;16.63;;;5.38;;
17052;SDS011;8643;48.824;11.422;2023-06-22T14:55:06;13.88;;;5.50;;